Park Fletcher, Indiana
Current Conditions -  °F | °C
As of 10:54 PM on Wednesday 26 Nov 2014 (Local Time) from KIND Reporting Station
Overcast Overcast  
Wind Chill: 18°   Ceiling: 9000
Heat Index: 27°   Visibility: 10mi
Dew Point: 21°   Wind: 9mph
Humidity: 78%   Direction: 30°NNE
Pressure: 30.08"   Gusts: NA
Location:  39.7251°N, 86.264°W
Report Text: KIND 270354Z 03008KT 10SM BKN090 BKN110 OVC200 M03/M06 A3008 RMK AO2 SLP195 T10281061
Loading
Personal Weather Stations






























Interactive Weather Map New forecast layout! Learn more

10-Day Weather Forecast

Advertisements
Track Severe Weather on mobile